createdAt,value
2022-12-02T00:02:21.270Z,19.77
2022-12-02T00:04:53.125Z,19.17
2022-12-02T00:07:23.969Z,18.15
2022-12-02T00:09:52.674Z,19.63
2022-12-02T00:12:23.646Z,18.92
2022-12-02T00:14:57.193Z,18.38
2022-12-02T00:17:25.060Z,18.65
2022-12-02T00:19:52.947Z,18.33
2022-12-02T00:22:22.712Z,17.50
2022-12-02T00:24:51.534Z,18.13
2022-12-02T00:27:19.248Z,19.10
2022-12-02T00:29:46.893Z,19.08
2022-12-02T00:32:15.729Z,20.10
2022-12-02T00:34:45.148Z,19.58
2022-12-02T00:37:12.661Z,18.90
2022-12-02T00:39:41.564Z,18.63
2022-12-02T00:42:09.113Z,18.93
2022-12-02T00:45:02.785Z,19.75
2022-12-02T00:47:30.306Z,19.45
2022-12-02T00:49:58.106Z,19.10
2022-12-02T00:52:25.617Z,20.33
2022-12-02T00:54:54.723Z,19.63
2022-12-02T00:57:22.452Z,19.10
2022-12-02T00:59:50.199Z,19.52
2022-12-02T01:02:18.755Z,19.25
2022-12-02T01:04:46.413Z,20.23
2022-12-02T01:07:15.218Z,20.20
2022-12-02T01:09:42.994Z,18.48
2022-12-02T01:12:12.020Z,18.77
2022-12-02T01:14:41.143Z,19.17
2022-12-02T01:17:09.931Z,20.30
2022-12-02T01:19:37.638Z,18.95
2022-12-02T01:22:05.523Z,19.90
2022-12-02T01:24:34.168Z,19.93
2022-12-02T01:27:03.874Z,19.63
2022-12-02T01:29:32.861Z,20.43
2022-12-02T01:32:00.708Z,20.65
2022-12-02T01:34:28.324Z,20.00
2022-12-02T01:36:55.977Z,20.93
2022-12-02T01:39:24.532Z,21.15
2022-12-02T01:41:52.256Z,20.20
2022-12-02T01:44:20.888Z,22.17
2022-12-02T01:46:51.078Z,20.48
2022-12-02T01:49:20.296Z,20.53
2022-12-02T01:51:48.914Z,20.40
2022-12-02T01:54:17.655Z,22.05
2022-12-02T01:56:45.315Z,20.97
2022-12-02T01:59:15.419Z,21.70
2022-12-02T02:01:43.354Z,21.00
2022-12-02T02:04:13.108Z,20.52
2022-12-02T02:06:43.266Z,20.92
2022-12-02T02:09:11.859Z,20.48
2022-12-02T02:11:41.751Z,20.48
2022-12-02T02:14:11.612Z,19.87
2022-12-02T02:16:40.353Z,21.33
2022-12-02T02:19:13.246Z,20.30
2022-12-02T02:21:44.342Z,19.70
2022-12-02T02:24:13.405Z,20.25
2022-12-02T02:26:41.002Z,19.08
2022-12-02T02:29:09.062Z,19.95
2022-12-02T02:31:38.327Z,19.52
2022-12-02T02:34:06.340Z,18.90
2022-12-02T02:36:34.139Z,19.70
2022-12-02T02:39:02.105Z,18.85
2022-12-02T02:41:34.435Z,20.25
2022-12-02T02:44:02.171Z,19.65
2022-12-02T02:46:30.059Z,20.75
2022-12-02T02:48:58.669Z,20.83
2022-12-02T02:51:26.474Z,20.63
2022-12-02T02:53:55.214Z,20.73
2022-12-02T02:56:23.548Z,21.23
2022-12-02T02:58:52.558Z,21.77
2022-12-02T03:01:22.756Z,22.00
2022-12-02T03:03:53.580Z,21.58
2022-12-02T03:06:21.113Z,20.63
2022-12-02T03:08:49.957Z,21.83
2022-12-02T03:11:17.703Z,22.03
2022-12-02T03:13:46.773Z,22.17
2022-12-02T03:16:17.297Z,22.30
2022-12-02T03:18:47.195Z,21.52
2022-12-02T03:21:16.311Z,21.52
2022-12-02T03:23:44.070Z,20.75
2022-12-02T03:26:11.652Z,21.30
2022-12-02T03:28:39.231Z,21.23
2022-12-02T03:31:07.042Z,21.40
2022-12-02T03:33:37.157Z,21.67
2022-12-02T03:36:05.446Z,20.15
2022-12-02T03:38:34.822Z,20.33
2022-12-02T03:41:02.886Z,21.10
2022-12-02T03:43:30.849Z,20.17
2022-12-02T03:45:59.244Z,22.05
2022-12-02T03:48:27.066Z,20.67
2022-12-02T03:50:56.310Z,20.55
2022-12-02T03:53:24.173Z,21.38
2022-12-02T03:55:51.954Z,19.98
2022-12-02T03:58:19.518Z,20.63
2022-12-02T04:00:48.222Z,21.98
2022-12-02T04:03:15.810Z,19.70
2022-12-02T04:05:49.329Z,19.58
2022-12-02T04:08:18.902Z,21.58
2022-12-02T04:10:46.604Z,21.10
2022-12-02T04:13:14.346Z,20.98
2022-12-02T04:15:41.860Z,20.75
2022-12-02T04:18:10.697Z,20.83
2022-12-02T04:20:39.154Z,21.75
2022-12-02T04:24:08.636Z,21.73
2022-12-02T04:26:42.022Z,21.27
2022-12-02T04:29:11.246Z,20.90
2022-12-02T04:31:39.776Z,21.73
2022-12-02T04:34:07.396Z,20.70
2022-12-02T04:36:36.970Z,20.77
2022-12-02T04:39:05.547Z,22.73
2022-12-02T04:41:33.050Z,23.67
2022-12-02T04:44:01.932Z,23.70
2022-12-02T04:46:29.614Z,23.37
2022-12-02T04:48:58.134Z,21.13
2022-12-02T04:51:26.357Z,24.75
2022-12-02T04:53:53.885Z,22.33
2022-12-02T04:56:21.518Z,21.38
2022-12-02T04:58:50.935Z,22.98
2022-12-02T05:01:23.176Z,22.57
2022-12-02T05:03:50.985Z,22.00
2022-12-02T05:06:18.745Z,23.40
2022-12-02T05:08:46.291Z,23.23
2022-12-02T05:11:14.031Z,22.15
2022-12-02T05:13:41.707Z,24.63
2022-12-02T05:16:09.301Z,23.73
2022-12-02T05:18:39.748Z,23.98
2022-12-02T05:21:08.493Z,23.33
2022-12-02T05:23:37.029Z,23.85
2022-12-02T05:26:04.750Z,21.63
2022-12-02T05:28:32.472Z,22.63
2022-12-02T05:31:00.340Z,21.05
2022-12-02T05:33:28.842Z,19.38
2022-12-02T05:35:57.762Z,22.95
2022-12-02T05:38:25.378Z,22.00
2022-12-02T05:40:54.611Z,22.83
2022-12-02T05:43:24.412Z,21.05
2022-12-02T05:45:52.117Z,21.95
2022-12-02T05:48:20.814Z,22.27
2022-12-02T05:50:48.524Z,21.53
2022-12-02T05:53:23.615Z,22.13
2022-12-02T05:55:51.292Z,22.77
2022-12-02T05:58:19.409Z,22.10
2022-12-02T06:00:50.116Z,22.73
2022-12-02T06:03:20.300Z,22.83
2022-12-02T06:05:49.437Z,22.83
2022-12-02T06:08:21.053Z,22.10
2022-12-02T06:10:50.130Z,22.30
2022-12-02T06:13:20.907Z,21.30
2022-12-02T06:15:49.370Z,22.52
2022-12-02T06:18:18.498Z,22.53
2022-12-02T06:20:47.340Z,21.50
2022-12-02T06:23:19.479Z,21.83
2022-12-02T06:25:47.907Z,22.17
2022-12-02T06:28:24.578Z,21.53
2022-12-02T06:30:52.381Z,22.45
2022-12-02T06:33:26.849Z,23.02
2022-12-02T06:35:55.437Z,22.80
2022-12-02T06:38:29.165Z,22.90
2022-12-02T06:40:56.981Z,22.33
2022-12-02T06:43:27.311Z,21.20
2022-12-02T06:45:55.356Z,22.02
2022-12-02T06:48:28.749Z,21.92
2022-12-02T06:50:58.090Z,23.92
2022-12-02T06:53:34.382Z,21.75
2022-12-02T06:56:05.961Z,21.70
2022-12-02T06:58:39.077Z,22.95
2022-12-02T07:01:17.311Z,20.88
2022-12-02T07:03:47.463Z,19.30
2022-12-02T07:06:18.170Z,20.80
2022-12-02T07:08:47.492Z,22.10
2022-12-02T07:11:20.863Z,20.50
2022-12-02T07:13:49.734Z,22.15
2022-12-02T07:16:32.333Z,19.07
2022-12-02T07:19:00.926Z,20.88
2022-12-02T07:21:29.057Z,18.70
2022-12-02T07:23:58.379Z,19.10
2022-12-02T07:26:25.969Z,20.10
2022-12-02T07:29:11.930Z,19.88
2022-12-02T07:31:44.696Z,20.63
2022-12-02T07:34:13.565Z,18.38
2022-12-02T07:36:41.788Z,20.00
2022-12-02T07:39:10.713Z,19.50
2022-12-02T07:41:38.256Z,18.85
2022-12-02T07:44:06.345Z,19.60
2022-12-02T07:46:34.044Z,19.23
2022-12-02T07:49:01.784Z,18.15
2022-12-02T07:51:29.377Z,18.70
2022-12-02T07:53:56.894Z,17.92
2022-12-02T07:56:25.843Z,17.05
2022-12-02T08:01:41.087Z,17.90
2022-12-02T08:04:08.854Z,17.10
2022-12-02T08:06:39.870Z,17.15
2022-12-02T08:09:08.049Z,17.38
2022-12-02T08:11:37.109Z,14.97
2022-12-02T08:14:05.080Z,15.03
2022-12-02T08:16:32.713Z,15.75
2022-12-02T08:19:00.678Z,15.45
2022-12-02T08:21:28.838Z,15.38
2022-12-02T08:23:56.532Z,15.23
2022-12-02T08:26:24.168Z,13.70
2022-12-02T08:28:54.395Z,15.02
2022-12-02T08:31:22.910Z,14.57
2022-12-02T08:33:51.032Z,15.35
2022-12-02T08:36:18.674Z,14.80
2022-12-02T08:38:47.538Z,14.60
2022-12-02T08:41:15.445Z,14.07
2022-12-02T08:43:43.389Z,15.32
2022-12-02T08:46:13.189Z,14.27
2022-12-02T08:48:40.749Z,13.80
2022-12-02T08:51:08.315Z,15.45
2022-12-02T08:53:36.802Z,14.50
2022-12-02T08:56:04.266Z,14.97
2022-12-02T08:58:31.831Z,15.90
2022-12-02T09:00:59.326Z,16.13
2022-12-02T09:03:28.649Z,14.48
2022-12-02T09:05:56.182Z,14.95
2022-12-02T09:08:24.402Z,16.25
2022-12-02T09:10:52.197Z,16.73
2022-12-02T09:13:21.642Z,16.05
2022-12-02T09:15:49.241Z,15.15
2022-12-02T09:18:16.817Z,15.57
2022-12-02T09:20:46.028Z,16.08
2022-12-02T09:23:13.590Z,16.60
2022-12-02T09:25:41.231Z,15.20
2022-12-02T09:28:09.018Z,16.75
2022-12-02T09:30:37.169Z,16.47
2022-12-02T09:33:04.867Z,17.07
2022-12-02T09:35:32.701Z,16.63
2022-12-02T09:38:02.097Z,17.38
2022-12-02T09:40:29.832Z,16.80
2022-12-02T09:42:57.425Z,16.80
2022-12-02T09:45:24.936Z,18.70
2022-12-02T09:47:53.501Z,16.80
2022-12-02T09:50:22.485Z,18.50
2022-12-02T09:52:51.038Z,18.50
2022-12-02T09:55:21.137Z,16.80
2022-12-02T09:57:49.559Z,17.80
2022-12-02T10:00:19.927Z,18.42
2022-12-02T10:02:48.585Z,18.38
2022-12-02T10:05:18.406Z,18.48
2022-12-02T10:07:46.818Z,18.02
2022-12-02T10:10:17.861Z,17.92
2022-12-02T10:12:47.086Z,19.03
2022-12-02T10:15:16.464Z,19.08
2022-12-02T10:17:46.779Z,18.05
2022-12-02T10:20:17.319Z,20.30
2022-12-02T10:23:07.695Z,19.83
2022-12-02T10:25:36.982Z,19.80
2022-12-02T10:28:09.909Z,20.85
2022-12-02T10:30:38.420Z,20.67
2022-12-02T10:33:08.268Z,20.73
2022-12-02T10:35:44.705Z,20.77
2022-12-02T10:38:29.621Z,20.98
2022-12-02T10:41:13.171Z,21.80
2022-12-02T10:43:42.720Z,21.80
2022-12-02T10:46:12.817Z,23.40
2022-12-02T10:48:40.353Z,22.38
2022-12-02T10:51:11.630Z,24.88
2022-12-02T10:53:40.303Z,24.48
2022-12-02T10:56:08.699Z,22.85
2022-12-02T10:58:36.466Z,24.30
2022-12-02T11:01:11.011Z,24.13
2022-12-02T11:03:38.863Z,25.10
2022-12-02T11:06:07.432Z,23.38
2022-12-02T11:08:36.689Z,24.87
2022-12-02T11:11:11.805Z,23.70
2022-12-02T11:13:53.626Z,24.10
2022-12-02T11:17:06.458Z,25.38
2022-12-02T11:19:48.102Z,25.88
2022-12-02T11:22:53.066Z,25.90
2022-12-02T11:25:53.592Z,28.23
2022-12-02T11:28:55.889Z,25.20
2022-12-02T11:31:27.561Z,26.77
2022-12-02T11:34:19.363Z,27.92
2022-12-02T11:36:47.088Z,29.23
2022-12-02T11:39:41.027Z,26.77
2022-12-02T11:42:24.021Z,27.00
2022-12-02T11:44:52.637Z,28.00
2022-12-02T11:47:25.874Z,27.13
2022-12-02T11:49:55.037Z,27.65
2022-12-02T11:52:28.286Z,27.98
2022-12-02T11:55:05.622Z,27.30
2022-12-02T11:57:42.646Z,26.57
2022-12-02T12:00:21.873Z,28.58
2022-12-02T12:03:05.611Z,29.03
2022-12-02T12:05:34.854Z,28.35
2022-12-02T12:08:03.755Z,28.17
2022-12-02T12:10:33.409Z,27.27
2022-12-02T12:13:19.175Z,28.50
2022-12-02T12:15:51.937Z,28.55
2022-12-02T12:18:39.364Z,28.98
2022-12-02T12:21:09.750Z,28.20
2022-12-02T12:23:38.980Z,28.42
2022-12-02T12:26:07.903Z,27.02
2022-12-02T12:28:37.406Z,26.83
2022-12-02T12:31:07.062Z,28.05
2022-12-02T12:33:34.960Z,27.90
2022-12-02T12:36:02.517Z,26.83
2022-12-02T12:38:34.007Z,27.58
2022-12-02T12:41:02.551Z,25.77
2022-12-02T12:43:30.084Z,26.80
2022-12-02T12:45:58.009Z,27.65
2022-12-02T12:48:26.462Z,27.02
2022-12-02T12:50:55.005Z,25.67
2022-12-02T12:53:22.769Z,25.92
2022-12-02T12:55:55.297Z,25.42
2022-12-02T12:58:27.823Z,25.23
2022-12-02T13:00:55.431Z,24.50
2022-12-02T13:03:24.485Z,24.60
2022-12-02T13:05:53.056Z,25.42
2022-12-02T13:08:21.243Z,24.23
2022-12-02T13:10:48.995Z,23.63
2022-12-02T13:13:18.216Z,23.93
2022-12-02T13:15:45.715Z,24.17
2022-12-02T13:18:13.455Z,23.45
2022-12-02T13:20:40.954Z,24.53
2022-12-02T13:23:09.556Z,22.23
2022-12-02T13:25:37.659Z,22.00
2022-12-02T13:28:05.587Z,22.38
2022-12-02T13:30:40.648Z,22.42
2022-12-02T13:33:09.914Z,22.65
2022-12-02T13:35:37.646Z,22.48
2022-12-02T13:38:05.339Z,21.23
2022-12-02T13:40:32.971Z,21.95
2022-12-02T13:43:00.465Z,22.40
2022-12-02T13:45:30.390Z,23.30
2022-12-02T13:48:02.505Z,22.95
2022-12-02T13:50:30.314Z,22.83
2022-12-02T13:52:57.995Z,23.53
2022-12-02T13:55:26.241Z,22.60
2022-12-02T13:57:53.902Z,22.50
2022-12-02T14:00:21.804Z,22.92
2022-12-02T14:02:49.339Z,22.20
2022-12-02T14:05:18.499Z,22.95
2022-12-02T14:07:47.821Z,20.88
2022-12-02T14:10:16.397Z,22.17
2022-12-02T14:12:44.114Z,21.30
2022-12-02T14:15:12.106Z,22.35
2022-12-02T14:17:39.836Z,21.83
2022-12-02T14:20:09.126Z,23.23
2022-12-02T14:22:39.053Z,22.60
2022-12-02T14:25:06.992Z,23.10
2022-12-02T14:27:34.906Z,22.48
2022-12-02T14:30:02.641Z,22.30
2022-12-02T14:32:30.201Z,22.17
2022-12-02T14:34:57.873Z,22.77
2022-12-02T14:37:25.382Z,21.92
2022-12-02T14:39:55.274Z,21.58
2022-12-02T14:42:22.947Z,21.08
2022-12-02T14:44:51.831Z,22.35
2022-12-02T14:47:19.686Z,23.35
2022-12-02T14:49:47.257Z,23.15
2022-12-02T14:52:14.934Z,22.48
2022-12-02T14:54:42.645Z,22.75
2022-12-02T14:57:14.230Z,21.83
2022-12-02T14:59:42.846Z,23.10
2022-12-02T15:02:10.832Z,22.15
2022-12-02T15:04:38.817Z,21.83
2022-12-02T15:07:06.364Z,23.02
2022-12-02T15:09:34.150Z,22.80
2022-12-02T15:12:02.168Z,22.95
2022-12-02T15:14:32.215Z,20.67
2022-12-02T15:17:00.909Z,21.35
2022-12-02T15:19:28.901Z,20.50
2022-12-02T15:21:56.846Z,20.52
2022-12-02T15:24:24.851Z,20.60
2022-12-02T15:26:55.720Z,22.23
2022-12-02T15:29:24.101Z,21.90
2022-12-02T15:31:54.163Z,22.05
2022-12-02T15:34:22.840Z,20.42
2022-12-02T15:36:51.446Z,22.23
2022-12-02T15:39:20.735Z,21.80
2022-12-02T15:41:48.563Z,22.52
2022-12-02T15:44:16.128Z,20.83
2022-12-02T15:46:44.757Z,21.10
2022-12-02T15:49:13.718Z,22.23
2022-12-02T15:51:41.365Z,21.52
2022-12-02T15:54:09.078Z,19.92
2022-12-02T15:56:36.648Z,20.40
2022-12-02T15:59:04.285Z,19.48
2022-12-02T16:01:31.970Z,19.38
2022-12-02T16:03:59.731Z,19.23
2022-12-02T16:06:29.794Z,18.42
2022-12-02T16:08:58.290Z,17.05
2022-12-02T16:11:26.049Z,17.13
2022-12-02T16:13:53.634Z,17.70
2022-12-02T16:16:24.624Z,16.52
2022-12-02T16:18:52.374Z,16.92
2022-12-02T16:21:21.053Z,16.85
2022-12-02T16:23:50.735Z,15.80
2022-12-02T16:26:19.353Z,16.52
2022-12-02T16:28:48.727Z,15.77
2022-12-02T16:31:16.688Z,16.27
2022-12-02T16:33:44.390Z,16.17
2022-12-02T16:36:12.037Z,15.68
2022-12-02T16:38:39.905Z,16.40
2022-12-02T16:41:10.012Z,15.90
2022-12-02T16:43:37.721Z,16.00
2022-12-02T16:46:06.505Z,15.13
2022-12-02T16:48:34.351Z,14.90
2022-12-02T16:51:01.877Z,16.25
2022-12-02T16:53:30.594Z,16.05
2022-12-02T16:55:58.297Z,15.20
2022-12-02T16:58:27.172Z,15.23
2022-12-02T17:00:55.175Z,15.82
2022-12-02T17:03:22.976Z,15.38
2022-12-02T17:05:50.669Z,16.38
2022-12-02T17:08:19.415Z,15.73
2022-12-02T17:10:47.290Z,15.57
2022-12-02T17:13:15.210Z,15.90
2022-12-02T17:15:45.223Z,15.02
2022-12-02T17:18:13.217Z,15.20
2022-12-02T17:20:41.213Z,14.13
2022-12-02T17:23:09.020Z,15.00
2022-12-02T17:25:37.737Z,14.50
2022-12-02T17:28:05.714Z,14.25
2022-12-02T17:30:35.181Z,14.30
2022-12-02T17:33:07.131Z,15.23
2022-12-02T17:35:48.697Z,14.68
2022-12-02T17:38:17.275Z,14.00
2022-12-02T17:40:45.004Z,13.77
2022-12-02T17:43:12.672Z,14.68
2022-12-02T17:45:40.235Z,15.18
2022-12-02T17:48:09.316Z,14.75
2022-12-02T17:50:38.026Z,14.27
2022-12-02T17:53:05.558Z,15.18
2022-12-02T17:55:34.022Z,14.98
2022-12-02T17:58:02.763Z,14.00
2022-12-02T18:00:30.740Z,14.45
2022-12-02T18:02:59.329Z,14.40
2022-12-02T18:05:28.555Z,14.23
2022-12-02T18:07:57.300Z,13.88
2022-12-02T18:10:24.919Z,14.70
2022-12-02T18:13:57.856Z,13.18
2022-12-02T18:16:29.620Z,14.48
2022-12-02T18:18:58.473Z,13.63
2022-12-02T18:21:27.302Z,14.15
2022-12-02T18:23:54.883Z,14.00
2022-12-02T18:26:23.178Z,13.63
2022-12-02T18:28:51.658Z,13.32
2022-12-02T18:31:20.191Z,14.05
2022-12-02T18:33:49.158Z,13.48
2022-12-02T18:36:17.535Z,13.45
2022-12-02T18:38:46.413Z,13.75
2022-12-02T18:41:14.167Z,14.23
2022-12-02T18:43:41.996Z,14.25
2022-12-02T18:46:09.748Z,14.27
2022-12-02T18:48:37.508Z,13.95
2022-12-02T18:51:05.563Z,14.48
2022-12-02T18:53:34.073Z,14.10
2022-12-02T18:56:02.946Z,13.73
2022-12-02T18:58:31.457Z,14.05
2022-12-02T19:01:00.139Z,13.40
2022-12-02T19:03:41.658Z,15.15
2022-12-02T19:06:09.211Z,13.23
2022-12-02T19:08:37.873Z,13.32
2022-12-02T19:11:07.222Z,13.27
2022-12-02T19:13:34.822Z,13.10
2022-12-02T19:16:02.754Z,14.85
2022-12-02T19:18:30.446Z,12.73
2022-12-02T19:20:58.135Z,14.20
2022-12-02T19:23:25.699Z,12.90
2022-12-02T19:25:53.374Z,13.98
2022-12-02T19:28:23.417Z,13.65
2022-12-02T19:30:51.237Z,13.70
2022-12-02T19:33:19.461Z,13.52
2022-12-02T19:35:49.258Z,14.25
2022-12-02T19:38:16.855Z,14.63
2022-12-02T19:40:45.820Z,13.75
2022-12-02T19:43:13.844Z,13.90
2022-12-02T19:45:43.961Z,13.00
2022-12-02T19:48:11.850Z,14.25
2022-12-02T19:50:39.636Z,13.80
2022-12-02T19:53:07.449Z,14.00
2022-12-02T19:55:36.096Z,12.57
2022-12-02T19:58:03.871Z,13.27
2022-12-02T20:00:31.826Z,14.30
2022-12-02T20:03:00.894Z,14.18
2022-12-02T20:05:28.522Z,12.52
2022-12-02T20:07:56.541Z,13.23
2022-12-02T20:10:25.297Z,13.93
2022-12-02T20:12:52.827Z,13.02
2022-12-02T20:15:21.429Z,13.27
2022-12-02T20:17:49.019Z,13.43
2022-12-02T20:20:18.236Z,13.50
2022-12-02T20:22:45.939Z,13.05
2022-12-02T20:25:13.743Z,12.88
2022-12-02T20:27:41.335Z,12.98
2022-12-02T20:30:10.032Z,13.30
2022-12-02T20:32:38.248Z,14.05
2022-12-02T20:35:06.606Z,13.10
2022-12-02T20:37:35.733Z,13.93
2022-12-02T20:40:03.608Z,12.63
2022-12-02T20:42:31.972Z,13.60
2022-12-02T20:45:00.542Z,12.77
2022-12-02T20:47:28.219Z,13.30
2022-12-02T20:49:57.327Z,13.15
2022-12-02T20:52:25.076Z,13.20
2022-12-02T20:54:54.285Z,13.23
2022-12-02T20:57:23.344Z,12.53
2022-12-02T20:59:51.545Z,12.65
2022-12-02T21:02:20.243Z,13.55
2022-12-02T21:04:49.277Z,13.65
2022-12-02T21:07:16.844Z,13.27
2022-12-02T21:09:44.671Z,14.07
2022-12-02T21:12:13.749Z,14.60
2022-12-02T21:14:41.256Z,14.00
2022-12-02T21:17:08.808Z,13.80
2022-12-02T21:19:36.424Z,13.82
2022-12-02T21:22:04.112Z,13.32
2022-12-02T21:24:31.744Z,14.73
2022-12-02T21:26:59.537Z,15.10
2022-12-02T21:29:29.409Z,14.52
2022-12-02T21:31:57.364Z,14.10
2022-12-02T21:34:25.151Z,14.98
2022-12-02T21:36:53.838Z,14.43
2022-12-02T21:39:21.502Z,14.82
2022-12-02T21:41:49.059Z,13.93
2022-12-02T21:44:16.638Z,14.27
2022-12-02T21:46:45.687Z,14.27
2022-12-02T21:49:13.294Z,15.43
2022-12-02T21:51:41.018Z,15.07
2022-12-02T21:54:08.903Z,15.65
2022-12-02T21:56:37.242Z,15.50
2022-12-02T21:59:06.103Z,16.10
2022-12-02T22:01:41.068Z,14.85
2022-12-02T22:04:12.088Z,14.55
2022-12-02T22:06:40.860Z,15.57
2022-12-02T22:09:08.777Z,15.40
2022-12-02T22:11:37.062Z,15.70
2022-12-02T22:14:04.739Z,16.05
2022-12-02T22:16:32.635Z,15.30
2022-12-02T22:19:00.933Z,14.65
2022-12-02T22:21:30.151Z,15.38
2022-12-02T22:23:57.888Z,15.23
2022-12-02T22:26:26.613Z,15.93
2022-12-02T22:28:54.560Z,14.82
2022-12-02T22:31:22.271Z,15.82
2022-12-02T22:33:51.008Z,14.70
2022-12-02T22:36:18.554Z,15.77
2022-12-02T22:38:47.432Z,14.63
2022-12-02T22:41:15.023Z,16.27
2022-12-02T22:43:42.698Z,15.10
2022-12-02T22:46:10.453Z,15.52
2022-12-02T22:48:38.114Z,16.08
2022-12-02T22:51:06.185Z,15.83
2022-12-02T22:53:34.812Z,15.95
2022-12-02T22:56:04.715Z,15.32
2022-12-02T22:58:32.490Z,15.45
2022-12-02T23:01:01.189Z,15.57
2022-12-02T23:03:29.035Z,15.50
2022-12-02T23:05:56.802Z,16.05
2022-12-02T23:08:25.213Z,15.90
2022-12-02T23:10:53.864Z,15.67
2022-12-02T23:13:22.730Z,16.45
2022-12-02T23:15:50.502Z,15.40
2022-12-02T23:18:18.148Z,15.70
2022-12-02T23:20:46.359Z,15.82
2022-12-02T23:23:13.895Z,16.60
2022-12-02T23:25:42.152Z,16.50
2022-12-02T23:28:09.683Z,15.38
2022-12-02T23:30:38.775Z,14.95
2022-12-02T23:33:07.629Z,16.92
2022-12-02T23:35:35.215Z,15.95
2022-12-02T23:38:02.848Z,16.25
2022-12-02T23:40:34.374Z,15.52
2022-12-02T23:43:03.630Z,17.17
2022-12-02T23:45:31.399Z,15.32
2022-12-02T23:48:00.752Z,15.00
2022-12-02T23:50:28.382Z,16.00
2022-12-02T23:52:55.837Z,16.02
2022-12-02T23:55:23.799Z,16.10
2022-12-02T23:57:52.521Z,16.05
